createdAt,value
2023-02-03T00:02:05.253Z,13.50
2023-02-03T00:04:34.523Z,10.90
2023-02-03T00:07:03.304Z,7.60
2023-02-03T00:09:32.399Z,11.80
2023-02-03T00:12:01.596Z,10.40
2023-02-03T00:14:30.591Z,10.10
2023-02-03T00:16:59.787Z,11.30
2023-02-03T00:19:28.779Z,11.50
2023-02-03T00:21:58.001Z,13.30
2023-02-03T00:24:27.499Z,8.40
2023-02-03T00:26:56.691Z,14.10
2023-02-03T00:29:26.196Z,12.60
2023-02-03T00:31:55.373Z,13.10
2023-02-03T00:34:24.384Z,10.70
2023-02-03T00:36:53.364Z,12.90
2023-02-03T00:39:22.663Z,12.00
2023-02-03T00:41:51.563Z,12.20
2023-02-03T00:44:21.163Z,8.50
2023-02-03T00:46:50.989Z,11.00
2023-02-03T00:49:20.083Z,10.40
2023-02-03T00:51:49.272Z,10.30
2023-02-03T00:54:18.272Z,11.70
2023-02-03T00:56:46.947Z,11.10
2023-02-03T00:59:15.624Z,8.70
2023-02-03T01:01:45.140Z,8.40
2023-02-03T01:04:14.436Z,8.70
2023-02-03T01:06:43.529Z,10.60
2023-02-03T01:09:12.741Z,9.60
2023-02-03T01:11:41.615Z,10.90
2023-02-03T01:14:10.792Z,11.60
2023-02-03T01:16:40.166Z,8.90
2023-02-03T01:19:09.925Z,9.20
2023-02-03T01:21:39.127Z,9.90
2023-02-03T01:24:09.860Z,12.90
2023-02-03T01:26:41.212Z,11.00
2023-02-03T01:29:10.305Z,9.80
2023-02-03T01:31:40.569Z,9.90
2023-02-03T01:34:14.043Z,13.70
2023-02-03T01:36:43.074Z,10.30
2023-02-03T01:39:12.414Z,9.80
2023-02-03T01:41:41.815Z,10.00
2023-02-03T01:44:35.897Z,17.70
2023-02-03T01:47:04.434Z,10.50
2023-02-03T01:49:36.040Z,12.10
2023-02-03T01:52:04.928Z,12.40
2023-02-03T01:54:35.982Z,9.90
2023-02-03T01:57:08.129Z,8.30
2023-02-03T01:59:37.131Z,12.40
2023-02-03T02:02:06.845Z,9.20
2023-02-03T02:04:56.454Z,9.80
2023-02-03T02:07:25.912Z,10.00
2023-02-03T02:09:55.533Z,11.40
2023-02-03T02:12:24.518Z,7.20
2023-02-03T02:14:53.194Z,7.80
2023-02-03T02:17:58.438Z,11.80
2023-02-03T02:20:27.411Z,8.10
2023-02-03T02:23:11.475Z,8.40
2023-02-03T02:25:53.476Z,8.70
2023-02-03T02:28:44.176Z,9.60
2023-02-03T02:31:47.648Z,11.20
2023-02-03T02:34:25.167Z,10.50
2023-02-03T02:36:59.608Z,10.40
2023-02-03T02:39:40.628Z,10.80
2023-02-03T02:42:37.333Z,10.30
2023-02-03T02:45:17.502Z,10.30
2023-02-03T02:47:47.272Z,12.70
2023-02-03T02:50:26.098Z,10.20
2023-02-03T02:52:55.190Z,8.70
2023-02-03T02:55:28.319Z,9.50
2023-02-03T02:58:02.733Z,7.30
2023-02-03T03:00:31.948Z,10.30
2023-02-03T03:03:13.184Z,8.80
2023-02-03T03:05:42.409Z,13.60
2023-02-03T03:08:11.262Z,11.80
2023-02-03T03:10:41.080Z,10.30
2023-02-03T03:13:12.342Z,11.20
2023-02-03T03:15:43.136Z,10.40
2023-02-03T03:18:20.087Z,11.30
2023-02-03T03:20:48.548Z,10.60
2023-02-03T03:23:23.129Z,9.90
2023-02-03T03:25:54.679Z,8.00
2023-02-03T03:30:56.883Z,10.00
2023-02-03T03:33:25.564Z,10.00
2023-02-03T03:36:04.080Z,13.80
2023-02-03T03:38:39.927Z,11.40
2023-02-03T03:41:15.928Z,10.50
2023-02-03T03:43:44.265Z,10.50
2023-02-03T03:46:34.594Z,12.00
2023-02-03T03:49:04.366Z,10.10
2023-02-03T03:51:45.548Z,11.40
2023-02-03T03:54:16.388Z,14.70
2023-02-03T03:56:59.199Z,13.90
2023-02-03T03:59:30.872Z,11.50
2023-02-03T04:04:29.255Z,10.00
2023-02-03T04:06:58.448Z,8.80
2023-02-03T04:09:27.543Z,9.70
2023-02-03T04:12:02.892Z,9.20
2023-02-03T04:14:39.052Z,9.20
2023-02-03T04:17:09.073Z,10.70
2023-02-03T04:19:38.543Z,7.70
2023-02-03T04:22:09.911Z,5.60
2023-02-03T04:24:38.607Z,8.60
2023-02-03T04:27:07.500Z,8.10
2023-02-03T04:29:36.169Z,8.20
2023-02-03T04:32:05.168Z,10.00
2023-02-03T04:34:35.968Z,8.00
2023-02-03T04:37:04.907Z,11.00
2023-02-03T04:39:34.624Z,14.20
2023-02-03T04:42:03.520Z,14.90
2023-02-03T04:44:32.786Z,11.20
2023-02-03T04:47:01.590Z,8.40
2023-02-03T04:49:31.187Z,7.80
2023-02-03T04:51:59.869Z,7.90
2023-02-03T04:54:28.877Z,8.00
2023-02-03T04:56:57.856Z,6.40
2023-02-03T04:59:26.956Z,5.70
2023-02-03T05:01:56.352Z,5.90
2023-02-03T05:04:25.858Z,7.00
2023-02-03T05:06:56.488Z,5.50
2023-02-03T05:09:25.991Z,7.00
2023-02-03T05:11:58.902Z,6.70
2023-02-03T05:14:27.537Z,8.90
2023-02-03T05:16:56.720Z,6.00
2023-02-03T05:19:26.368Z,7.60
2023-02-03T05:21:55.467Z,5.90
2023-02-03T05:24:24.249Z,10.70
2023-02-03T05:26:53.142Z,10.60
2023-02-03T05:29:22.237Z,10.20
2023-02-03T05:31:51.159Z,9.40
2023-02-03T05:34:20.016Z,11.50
2023-02-03T05:36:48.804Z,11.30
2023-02-03T05:39:18.185Z,8.50
2023-02-03T05:41:53.663Z,7.70
2023-02-03T05:44:24.341Z,7.90
2023-02-03T05:46:53.821Z,5.50
2023-02-03T05:49:24.318Z,5.50
2023-02-03T05:51:55.002Z,9.30
2023-02-03T05:54:24.656Z,7.00
2023-02-03T05:56:53.554Z,7.50
2023-02-03T05:59:22.543Z,6.40
2023-02-03T06:01:51.358Z,7.10
2023-02-03T06:04:20.444Z,12.90
2023-02-03T06:06:50.234Z,8.10
2023-02-03T06:09:20.384Z,10.90
2023-02-03T06:11:49.663Z,8.20
2023-02-03T06:14:18.429Z,9.40
2023-02-03T06:16:47.767Z,7.10
2023-02-03T06:19:16.829Z,8.00
2023-02-03T06:21:46.234Z,7.70
2023-02-03T06:24:15.229Z,7.40
2023-02-03T06:26:44.605Z,7.80
2023-02-03T06:29:13.518Z,9.60
2023-02-03T06:31:42.800Z,9.20
2023-02-03T06:34:12.228Z,8.40
2023-02-03T06:36:41.794Z,9.20
2023-02-03T06:39:11.013Z,17.90
2023-02-03T06:41:40.527Z,9.50
2023-02-03T06:44:09.620Z,8.00
2023-02-03T06:46:39.024Z,10.30
2023-02-03T06:49:08.065Z,6.90
2023-02-03T06:51:37.762Z,9.60
2023-02-03T06:54:08.051Z,6.20
2023-02-03T06:56:37.151Z,9.30
2023-02-03T06:59:06.143Z,9.80
2023-02-03T07:01:37.657Z,9.00
2023-02-03T07:04:06.589Z,10.60
2023-02-03T07:06:35.999Z,12.10
2023-02-03T07:09:05.552Z,14.40
2023-02-03T07:11:34.180Z,19.50
2023-02-03T07:14:03.586Z,20.10
2023-02-03T07:16:34.619Z,25.70
2023-02-03T07:19:04.433Z,17.30
2023-02-03T07:21:33.729Z,15.50
2023-02-03T07:24:03.564Z,23.60
2023-02-03T07:26:32.537Z,21.10
2023-02-03T07:29:01.731Z,16.80
2023-02-03T07:31:30.726Z,13.10
2023-02-03T07:34:01.459Z,11.80
2023-02-03T07:36:30.860Z,15.40
2023-02-03T07:38:59.750Z,13.90
2023-02-03T07:41:28.567Z,14.00
2023-02-03T07:43:57.544Z,11.50
2023-02-03T07:46:26.673Z,13.10
2023-02-03T07:48:57.459Z,13.80
2023-02-03T07:51:27.067Z,12.60
2023-02-03T07:53:56.982Z,19.90
2023-02-03T07:56:26.401Z,14.60
2023-02-03T07:58:56.094Z,13.00
2023-02-03T08:01:25.028Z,17.40
2023-02-03T08:03:55.201Z,14.50
2023-02-03T08:06:24.301Z,14.30
2023-02-03T08:08:54.511Z,14.70
2023-02-03T08:11:23.490Z,14.60
2023-02-03T08:13:52.377Z,14.40
2023-02-03T08:16:21.683Z,17.40
2023-02-03T08:18:50.694Z,16.20
2023-02-03T08:21:19.794Z,15.80
2023-02-03T08:23:48.903Z,17.00
2023-02-03T08:26:18.014Z,20.10
2023-02-03T08:28:50.563Z,22.50
2023-02-03T08:31:19.695Z,18.00
2023-02-03T08:33:48.747Z,25.70
2023-02-03T08:40:33.539Z,34.00
2023-02-03T08:43:02.531Z,24.70
2023-02-03T08:45:31.537Z,20.60
2023-02-03T08:48:01.139Z,20.60
2023-02-03T08:50:30.456Z,27.60
2023-02-03T08:53:00.283Z,29.60
2023-02-03T08:59:36.630Z,21.30
2023-02-03T09:02:49.761Z,16.60
2023-02-03T09:05:19.312Z,16.50
2023-02-03T09:07:50.532Z,16.80
2023-02-03T09:10:19.920Z,18.10
2023-02-03T09:12:49.831Z,20.00
2023-02-03T09:15:19.839Z,20.60
2023-02-03T09:17:49.380Z,19.10
2023-02-03T09:20:21.577Z,18.70
2023-02-03T09:22:50.822Z,17.10
2023-02-03T09:25:20.146Z,19.00
2023-02-03T09:27:49.450Z,16.20
2023-02-03T09:30:18.643Z,16.90
2023-02-03T09:32:54.303Z,17.40
2023-02-03T09:35:22.959Z,14.30
2023-02-03T09:37:53.267Z,18.90
2023-02-03T09:40:29.659Z,16.60
2023-02-03T09:43:03.743Z,19.90
2023-02-03T09:45:32.548Z,32.30
2023-02-03T09:48:05.987Z,23.50
2023-02-03T09:50:34.828Z,21.00
2023-02-03T09:53:06.629Z,26.50
2023-02-03T09:58:16.136Z,21.50
2023-02-03T10:00:48.476Z,24.80
2023-02-03T10:03:52.623Z,13.60
2023-02-03T10:06:24.789Z,16.70
2023-02-03T10:09:02.591Z,11.40
2023-02-03T10:11:38.949Z,12.10
2023-02-03T10:14:34.378Z,10.60
2023-02-03T10:17:26.543Z,12.20
2023-02-03T10:20:22.342Z,8.80
2023-02-03T10:22:57.468Z,10.10
2023-02-03T10:25:39.326Z,7.90
2023-02-03T10:28:18.327Z,12.40
2023-02-03T10:30:50.119Z,9.80
2023-02-03T10:33:19.849Z,9.20
2023-02-03T10:35:59.319Z,6.20
2023-02-03T10:38:47.210Z,12.70
2023-02-03T10:41:16.930Z,15.30
2023-02-03T10:43:53.309Z,9.30
2023-02-03T10:46:28.254Z,11.40
2023-02-03T10:48:57.450Z,8.20
2023-02-03T10:51:28.058Z,10.10
2023-02-03T10:53:59.997Z,12.60
2023-02-03T10:56:32.289Z,8.80
2023-02-03T10:59:01.288Z,5.60
2023-02-03T11:01:45.239Z,11.90
2023-02-03T11:04:31.338Z,6.10
2023-02-03T11:07:02.313Z,19.40
2023-02-03T11:09:39.333Z,16.20
2023-02-03T11:12:14.170Z,20.30
2023-02-03T11:14:54.319Z,20.40
2023-02-03T11:17:29.775Z,14.90
2023-02-03T11:20:06.698Z,17.40
2023-02-03T11:22:39.529Z,13.80
2023-02-03T11:25:19.714Z,13.50
2023-02-03T11:27:49.834Z,9.30
2023-02-03T11:30:30.585Z,16.10
2023-02-03T11:33:03.352Z,9.40
2023-02-03T11:35:33.873Z,7.50
2023-02-03T11:38:02.785Z,5.50
2023-02-03T11:40:34.312Z,9.80
2023-02-03T11:43:11.915Z,12.60
2023-02-03T11:45:52.175Z,23.30
2023-02-03T11:48:36.236Z,19.40
2023-02-03T11:51:42.488Z,25.50
2023-02-03T11:54:17.522Z,22.30
2023-02-03T11:57:05.584Z,23.60
2023-02-03T11:59:44.684Z,16.00
2023-02-03T12:02:41.654Z,17.90
2023-02-03T12:05:19.952Z,19.10
2023-02-03T12:07:55.000Z,18.10
2023-02-03T12:10:35.852Z,26.60
2023-02-03T12:13:29.623Z,25.20
2023-02-03T12:16:09.231Z,39.20
2023-02-03T12:19:04.379Z,23.50
2023-02-03T12:21:36.031Z,15.30
2023-02-03T12:24:28.670Z,12.80
2023-02-03T12:27:28.589Z,12.90
2023-02-03T12:30:09.766Z,12.10
2023-02-03T12:32:42.957Z,11.70
2023-02-03T12:35:31.887Z,13.40
2023-02-03T12:38:07.246Z,12.20
2023-02-03T12:40:40.142Z,12.20
2023-02-03T12:43:37.948Z,12.40
2023-02-03T12:46:22.876Z,11.70
2023-02-03T12:49:11.031Z,14.80
2023-02-03T12:51:45.136Z,15.00
2023-02-03T12:54:25.799Z,15.20
2023-02-03T12:56:55.814Z,13.90
2023-02-03T12:59:26.109Z,14.70
2023-02-03T13:01:59.165Z,10.90
2023-02-03T13:04:37.952Z,11.10
2023-02-03T13:07:17.690Z,12.80
2023-02-03T13:09:58.362Z,13.90
2023-02-03T13:12:38.093Z,12.40
2023-02-03T13:15:21.334Z,13.00
2023-02-03T13:18:05.884Z,13.90
2023-02-03T13:20:37.182Z,10.50
2023-02-03T13:23:11.349Z,13.00
2023-02-03T13:25:47.511Z,11.40
2023-02-03T13:28:25.819Z,9.80
2023-02-03T13:31:17.627Z,11.80
2023-02-03T13:36:39.397Z,11.20
2023-02-03T13:39:33.270Z,15.30
2023-02-03T13:42:31.551Z,13.20
2023-02-03T13:45:05.355Z,14.80
2023-02-03T13:47:34.260Z,13.80
2023-02-03T13:50:24.819Z,12.20
2023-02-03T13:53:15.305Z,16.10
2023-02-03T13:55:52.319Z,14.00
2023-02-03T13:58:32.578Z,15.60
2023-02-03T14:01:05.098Z,16.70
2023-02-03T14:03:37.636Z,24.50
2023-02-03T14:06:32.015Z,23.70
2023-02-03T14:09:02.153Z,24.90
2023-02-03T14:11:34.725Z,19.40
2023-02-03T14:14:12.920Z,26.00
2023-02-03T14:16:49.173Z,26.90
2023-02-03T14:19:30.469Z,29.10
2023-02-03T14:22:08.666Z,18.80
2023-02-03T14:24:43.102Z,19.40
2023-02-03T14:27:23.230Z,17.50
2023-02-03T14:30:14.001Z,18.80
2023-02-03T14:32:50.930Z,16.70
2023-02-03T14:35:33.597Z,16.30
2023-02-03T14:38:04.781Z,18.20
2023-02-03T14:40:41.123Z,15.00
2023-02-03T14:43:28.545Z,20.50
2023-02-03T14:46:12.796Z,21.30
2023-02-03T14:49:07.315Z,19.30
2023-02-03T14:52:14.420Z,19.90
2023-02-03T14:55:10.730Z,21.70
2023-02-03T14:57:50.834Z,18.80
2023-02-03T15:00:20.407Z,21.70
2023-02-03T15:03:09.564Z,17.30
2023-02-03T15:05:43.402Z,16.40
2023-02-03T15:08:35.804Z,17.50
2023-02-03T15:11:33.194Z,17.80
2023-02-03T15:14:33.592Z,16.30
2023-02-03T15:17:04.057Z,20.40
2023-02-03T15:19:34.585Z,22.20
2023-02-03T15:22:03.568Z,18.10
2023-02-03T15:24:36.296Z,20.80
2023-02-03T15:27:05.515Z,18.10
2023-02-03T15:29:34.917Z,18.10
2023-02-03T15:32:37.194Z,18.00
2023-02-03T15:35:07.667Z,19.00
2023-02-03T15:37:46.972Z,23.50
2023-02-03T15:43:25.077Z,26.20
2023-02-03T15:46:29.557Z,26.10
2023-02-03T15:49:03.122Z,24.80
2023-02-03T15:51:40.915Z,26.00
2023-02-03T15:58:03.466Z,28.60
2023-02-03T16:00:38.615Z,24.40
2023-02-03T16:03:16.940Z,24.10
2023-02-03T16:05:49.109Z,23.50
2023-02-03T16:08:29.573Z,26.70
2023-02-03T16:11:00.189Z,22.70
2023-02-03T16:13:34.186Z,36.90
2023-02-03T16:16:18.679Z,50.60
2023-02-03T16:18:58.837Z,32.70
2023-02-03T16:21:43.558Z,36.60
2023-02-03T16:24:48.902Z,30.60
2023-02-03T16:27:33.653Z,29.40
2023-02-03T16:30:24.480Z,27.90
2023-02-03T16:33:35.272Z,24.30
2023-02-03T16:36:31.273Z,33.30
2023-02-03T16:39:21.066Z,32.00
2023-02-03T16:42:08.893Z,33.90
2023-02-03T16:44:56.715Z,31.70
2023-02-03T16:47:50.075Z,26.00
2023-02-03T16:50:40.047Z,30.40
2023-02-03T16:53:20.379Z,21.50
2023-02-03T16:55:49.616Z,22.70
2023-02-03T16:58:19.170Z,22.80
2023-02-03T17:00:50.560Z,21.00
2023-02-03T17:03:21.594Z,24.60
2023-02-03T17:05:51.118Z,20.40
2023-02-03T17:08:21.856Z,27.00
2023-02-03T17:10:51.460Z,32.00
2023-02-03T17:13:21.497Z,33.20
2023-02-03T17:15:53.148Z,36.20
2023-02-03T17:18:22.559Z,31.80
2023-02-03T17:20:51.628Z,32.70
2023-02-03T17:23:20.163Z,30.00
2023-02-03T17:25:50.071Z,44.00
2023-02-03T17:28:19.041Z,50.60
2023-02-03T17:30:57.107Z,96.90
2023-02-03T17:33:27.958Z,76.30
2023-02-03T17:36:05.960Z,67.20
2023-02-03T17:38:38.240Z,55.30
2023-02-03T17:55:33.426Z,61.00
2023-02-03T17:58:04.460Z,63.00
2023-02-03T18:00:33.427Z,55.40
2023-02-03T18:03:02.643Z,47.40
2023-02-03T18:05:33.166Z,47.10
2023-02-03T18:08:09.082Z,38.50
2023-02-03T18:10:45.523Z,27.80
2023-02-03T18:13:15.396Z,24.20
2023-02-03T18:15:44.392Z,27.40
2023-02-03T18:18:15.018Z,23.00
2023-02-03T18:20:44.111Z,25.90
2023-02-03T18:23:13.125Z,22.70
2023-02-03T18:25:42.534Z,22.30
2023-02-03T18:28:58.085Z,19.40
2023-02-03T18:31:27.480Z,18.10
2023-02-03T18:33:56.893Z,18.90
2023-02-03T18:36:26.086Z,19.60
2023-02-03T18:38:55.691Z,18.60
2023-02-03T18:41:25.306Z,19.50
2023-02-03T18:43:54.660Z,19.20
2023-02-03T18:46:30.370Z,21.00
2023-02-03T18:49:00.385Z,19.60
2023-02-03T18:51:29.803Z,21.70
2023-02-03T18:53:59.399Z,18.50
2023-02-03T18:56:35.501Z,27.30
2023-02-03T18:59:07.125Z,28.60
2023-02-03T19:01:36.671Z,28.90
2023-02-03T19:04:05.920Z,24.10
2023-02-03T19:06:35.488Z,22.80
2023-02-03T19:09:06.418Z,18.40
2023-02-03T19:11:35.392Z,16.90
2023-02-03T19:14:04.856Z,17.90
2023-02-03T19:16:39.069Z,19.00
2023-02-03T19:19:08.577Z,20.00
2023-02-03T19:21:38.184Z,22.40
2023-02-03T19:24:07.487Z,20.00
2023-02-03T19:26:36.626Z,16.20
2023-02-03T19:29:05.685Z,18.00
2023-02-03T19:31:36.085Z,13.90
2023-02-03T19:34:06.123Z,17.80
2023-02-03T19:36:35.525Z,19.90
2023-02-03T19:39:04.921Z,15.30
2023-02-03T19:41:36.989Z,15.30
2023-02-03T19:44:06.598Z,14.30
2023-02-03T19:46:42.116Z,14.50
2023-02-03T19:49:15.793Z,15.10
2023-02-03T19:51:44.948Z,13.30
2023-02-03T19:54:15.577Z,17.40
2023-02-03T19:56:47.694Z,16.30
2023-02-03T19:59:16.964Z,14.80
2023-02-03T20:01:46.092Z,15.60
2023-02-03T20:04:15.969Z,16.70
2023-02-03T20:06:45.247Z,13.10
2023-02-03T20:09:14.955Z,15.70
2023-02-03T20:11:44.054Z,15.30
2023-02-03T20:14:15.724Z,21.00
2023-02-03T20:16:51.184Z,18.50
2023-02-03T20:19:20.466Z,23.20
2023-02-03T20:21:50.058Z,17.60
2023-02-03T20:24:19.028Z,17.60
2023-02-03T20:26:48.765Z,23.50
2023-02-03T20:29:18.685Z,17.80
2023-02-03T20:31:47.827Z,17.60
2023-02-03T20:34:17.377Z,16.00
2023-02-03T20:36:47.001Z,15.00
2023-02-03T20:39:19.672Z,18.80
2023-02-03T20:41:49.883Z,17.00
2023-02-03T20:44:19.898Z,20.80
2023-02-03T20:46:49.364Z,22.50
2023-02-03T20:49:20.137Z,22.00
2023-02-03T20:51:49.133Z,23.10
2023-02-03T20:54:21.941Z,27.50
2023-02-03T20:56:51.316Z,24.40
2023-02-03T20:59:20.425Z,18.00
2023-02-03T21:01:51.571Z,22.00
2023-02-03T21:04:39.136Z,19.60
2023-02-03T21:07:16.784Z,21.80
2023-02-03T21:09:47.990Z,16.80
2023-02-03T21:12:17.482Z,15.50
2023-02-03T21:14:49.997Z,20.80
2023-02-03T21:17:24.545Z,15.50
2023-02-03T21:19:54.946Z,14.70
2023-02-03T21:22:27.290Z,13.80
2023-02-03T21:24:59.803Z,15.00
2023-02-03T21:27:29.227Z,17.20
2023-02-03T21:29:59.492Z,16.40
2023-02-03T21:32:38.663Z,18.30
2023-02-03T21:35:25.166Z,16.00
2023-02-03T21:37:57.549Z,17.60
2023-02-03T21:40:27.873Z,17.60
2023-02-03T21:42:57.258Z,18.30
2023-02-03T21:45:37.252Z,15.10
2023-02-03T21:48:40.183Z,18.30
2023-02-03T21:51:23.937Z,17.20
2023-02-03T21:54:02.880Z,18.50
2023-02-03T21:56:38.020Z,15.80
2023-02-03T21:59:24.092Z,12.50
2023-02-03T22:01:57.895Z,11.30
2023-02-03T22:04:28.775Z,7.60
2023-02-03T22:06:57.621Z,6.50
2023-02-03T22:09:27.550Z,7.20
2023-02-03T22:12:16.199Z,9.40
2023-02-03T22:14:44.977Z,9.70
2023-02-03T22:17:15.406Z,10.30
2023-02-03T22:19:44.426Z,9.50
2023-02-03T22:22:13.898Z,10.00
2023-02-03T22:24:42.686Z,6.30
2023-02-03T22:27:11.585Z,9.50
2023-02-03T22:29:40.876Z,11.70
2023-02-03T22:32:09.768Z,10.50
2023-02-03T22:34:38.553Z,12.70
2023-02-03T22:37:07.446Z,9.70
2023-02-03T22:39:36.538Z,12.50
2023-02-03T22:42:05.529Z,13.80
2023-02-03T22:44:34.934Z,13.90
2023-02-03T22:47:03.719Z,14.20
2023-02-03T22:49:33.429Z,18.50
2023-02-03T22:52:02.838Z,17.50
2023-02-03T22:54:35.512Z,17.50
2023-02-03T22:57:04.502Z,20.20
2023-02-03T22:59:33.701Z,18.40
2023-02-03T23:02:02.770Z,20.60
2023-02-03T23:04:31.859Z,18.40
2023-02-03T23:07:00.884Z,22.90
2023-02-03T23:09:29.987Z,20.30
2023-02-03T23:11:58.765Z,17.60
2023-02-03T23:14:28.805Z,22.30
2023-02-03T23:16:57.782Z,18.30
2023-02-03T23:19:26.786Z,19.00
2023-02-03T23:21:56.076Z,19.00
2023-02-03T23:24:24.954Z,18.40
2023-02-03T23:26:53.953Z,15.00
2023-02-03T23:29:22.654Z,18.30
2023-02-03T23:31:52.003Z,15.30
2023-02-03T23:34:39.359Z,16.80
2023-02-03T23:37:08.869Z,15.40
2023-02-03T23:39:37.965Z,14.70
2023-02-03T23:42:06.756Z,12.10
2023-02-03T23:44:35.850Z,12.10
2023-02-03T23:47:05.150Z,13.20
2023-02-03T23:49:34.134Z,9.80
2023-02-03T23:52:03.254Z,10.30
2023-02-03T23:54:35.198Z,9.70
2023-02-03T23:57:05.131Z,13.70
2023-02-03T23:59:36.765Z,13.60
